Time;durP1;ratioP1;P1;durP2;ratioP2;P2;SDS_P1;SDS_P2;PMS_P1;PMS_P2;Temp;Humidity;BMP_temperature;BMP_pressure;BME280_temperature;BME280_humidity;BME280_pressure;Samples;Min_cycle;Max_cycle;Signal;HPM_P1;HPM_P2
2022/02/04 00:23:46;;;;;;;;;;;;;;;10.52;100.00;97753.88;4684406;30;19931;-81
2022/02/04 00:26:20;;;;;;;;;;;;;;;10.33;100.00;97752.16;4655103;30;19931;-82
2022/02/04 00:33:45;;;;;;;;;;;;;;;10.53;100.00;97751.84;4683290;30;19932;-81
2022/02/04 00:36:36;;;;;;;;;;;;;;;10.44;100.00;97749.78;4668526;30;19932;-81
2022/02/04 00:39:09;;;;;;;;;;;;;;;10.64;100.00;97743.88;4683631;30;19931;-81
2022/02/04 00:41:38;;;;;;;;;;;;;;;10.54;100.00;97742.28;4683209;30;19938;-82
2022/02/04 00:44:10;;;;;;;;;;;;;;;10.36;100.00;97728.94;4683858;30;19990;-81
2022/02/04 00:46:54;;;;;;;;;;;;;;;10.55;100.00;97732.66;4668770;30;20025;-81
2022/02/04 00:49:38;;;;;;;;;;;;;;;10.63;100.00;97722.78;4668987;30;19936;-81
2022/02/04 00:52:18;;;;;;;;;;;;;;;10.39;100.00;97752.41;4640848;30;19938;-81
2022/02/04 00:55:10;;;;;;;;;;;;;;;9.82;100.00;97749.97;4654186;30;20460;-81
2022/02/04 01:27:30;;;;;;;;;;;;;;;7.69;100.00;97852.38;4651813;30;19932;-80
2022/02/04 01:30:04;;;;;;;;;;;;;;;7.46;100.00;97850.53;4623324;30;19932;-80
2022/02/04 01:32:31;;;;;;;;;;;;;;;7.72;100.00;97879.31;4666462;30;20010;-80
2022/02/04 01:34:58;;;;;;;;;;;;;;;7.54;100.00;97870.59;4651081;30;19936;-81
2022/02/04 01:37:26;;;;;;;;;;;;;;;7.58;100.00;97872.09;4678613;30;20041;-80
2022/02/04 01:39:53;;;;;;;;;;;;;;;7.31;100.00;97877.84;4683121;30;19938;-80
2022/02/04 01:42:20;;;;;;;;;;;;;;;7.40;100.00;97877.28;4683576;30;20094;-80
2022/02/04 01:44:47;;;;;;;;;;;;;;;7.25;100.00;97876.03;4668423;30;20027;-80
2022/02/04 01:47:14;;;;;;;;;;;;;;;7.26;100.00;97880.34;4683722;30;19982;-80
2022/02/04 01:49:41;;;;;;;;;;;;;;;7.19;100.00;97866.63;4668402;30;19975;-80
2022/02/04 01:52:09;;;;;;;;;;;;;;;7.31;100.00;97900.06;4639649;30;19932;-80
2022/02/04 01:54:37;;;;;;;;;;;;;;;7.13;100.00;97890.56;4667772;30;19932;-80
2022/02/04 01:57:04;;;;;;;;;;;;;;;7.13;100.00;97888.53;4658083;30;20369;-80
2022/02/04 01:59:31;;;;;;;;;;;;;;;7.06;100.00;97902.59;4651005;30;20019;-80
2022/02/04 02:01:58;;;;;;;;;;;;;;;6.87;100.00;97905.38;4666239;30;19931;-80
2022/02/04 02:04:25;;;;;;;;;;;;;;;6.77;100.00;97911.94;4650853;30;19932;-80
2022/02/04 02:06:55;;;;;;;;;;;;;;;6.68;100.00;97897.81;4650991;30;19931;-80
2022/02/04 02:09:28;;;;;;;;;;;;;;;6.85;100.00;97910.56;4650554;30;20358;-80
2022/02/04 02:12:21;;;;;;;;;;;;;;;6.68;100.00;97906.91;4664964;30;20010;-80
2022/02/04 02:14:58;;;;;;;;;;;;;;;6.72;100.00;97904.09;4664912;30;19954;-80
2022/02/04 02:45:14;;;;;;;;;;;;;;;6.51;100.00;97904.47;4653351;30;20301;-80
2022/02/04 02:47:35;;;;;;;;;;;;;;;6.09;100.00;97889.34;4639295;30;20026;-80
2022/02/04 03:02:41;;;;;;;;;;;;;;;6.09;100.00;97899.69;4668442;30;20368;-80
2022/02/04 03:05:08;;;;;;;;;;;;;;;6.23;100.00;97916.06;4639402;30;19932;-80
2022/02/04 03:07:35;;;;;;;;;;;;;;;6.22;100.00;97915.28;4666930;30;20431;-80
2022/02/04 03:10:03;;;;;;;;;;;;;;;5.85;100.00;97893.31;4652950;30;20334;-80
2022/02/04 03:12:31;;;;;;;;;;;;;;;5.59;100.00;97919.81;4652772;30;19939;-80
2022/02/04 03:14:59;;;;;;;;;;;;;;;5.63;100.00;97921.75;4666952;30;19931;-80
2022/02/04 03:17:26;;;;;;;;;;;;;;;5.49;100.00;97919.97;4667270;30;20342;-80
2022/02/04 03:19:58;;;;;;;;;;;;;;;5.46;100.00;97929.91;4668389;30;19932;-80
2022/02/04 03:22:25;;;;;;;;;;;;;;;5.18;100.00;97921.97;4652799;30;20511;-80
2022/02/04 03:24:58;;;;;;;;;;;;;;;5.16;100.00;97924.38;4652715;30;20019;-80
2022/02/04 03:27:33;;;;;;;;;;;;;;;5.83;100.00;97931.00;4651973;30;20377;-80
2022/02/04 03:32:27;;;;;;;;;;;;;;;5.62;100.00;97934.03;4652659;30;19932;-81
2022/02/04 03:34:54;;;;;;;;;;;;;;;5.60;100.00;97935.22;4668015;30;19955;-81
2022/02/04 03:37:21;;;;;;;;;;;;;;;5.19;100.00;97931.06;4668139;30;19932;-81
2022/02/04 03:39:49;;;;;;;;;;;;;;;5.46;100.00;97941.00;4652533;30;20404;-81
2022/02/04 03:42:16;;;;;;;;;;;;;;;5.16;100.00;97937.44;4652459;30;20027;-81
2022/02/04 03:44:43;;;;;;;;;;;;;;;5.30;100.00;97943.56;4652842;30;19992;-81
2022/02/04 03:47:10;;;;;;;;;;;;;;;5.22;100.00;97939.34;4666923;30;19980;-81
2022/02/04 03:49:37;;;;;;;;;;;;;;;4.82;100.00;97936.63;4666563;30;19931;-80
2022/02/04 03:52:05;;;;;;;;;;;;;;;4.94;100.00;97936.88;4652776;30;19936;-80
2022/02/04 03:54:32;;;;;;;;;;;;;;;5.00;100.00;97928.91;4666462;30;19939;-81
2022/02/04 03:56:59;;;;;;;;;;;;;;;5.34;100.00;97941.53;4652746;30;19932;-81
2022/02/04 03:59:28;;;;;;;;;;;;;;;4.96;100.00;97928.97;4667557;30;20305;-80
2022/02/04 04:01:55;;;;;;;;;;;;;;;5.18;100.00;97935.81;4652189;30;20422;-80
2022/02/04 04:04:28;;;;;;;;;;;;;;;5.47;100.00;97936.22;4652091;30;20382;-81
2022/02/04 04:06:55;;;;;;;;;;;;;;;5.39;100.00;97932.75;4652006;30;20281;-80
2022/02/04 04:09:23;;;;;;;;;;;;;;;4.95;100.00;97926.63;4652695;30;19988;-80
2022/02/04 04:11:51;;;;;;;;;;;;;;;4.95;100.00;97927.38;4652020;30;20289;-80
2022/02/04 04:14:19;;;;;;;;;;;;;;;5.01;100.00;97931.25;4666178;30;19938;-80
2022/02/04 04:16:47;;;;;;;;;;;;;;;5.05;100.00;97925.69;4667447;30;20472;-80
2022/02/04 04:19:15;;;;;;;;;;;;;;;5.15;100.00;97931.09;4679979;30;20391;-80
2022/02/04 04:21:42;;;;;;;;;;;;;;;4.97;100.00;97932.50;4651957;30;19932;-80
2022/02/04 04:24:10;;;;;;;;;;;;;;;5.03;100.00;97942.72;4652057;30;19932;-80
2022/02/04 04:26:40;;;;;;;;;;;;;;;5.05;100.00;97951.41;4667366;30;20415;-80
2022/02/04 04:29:10;;;;;;;;;;;;;;;5.18;100.00;97946.88;4667022;30;19970;-80
2022/02/04 04:31:37;;;;;;;;;;;;;;;5.04;100.00;97952.59;4651998;30;20278;-80
2022/02/04 04:34:04;;;;;;;;;;;;;;;4.94;100.00;97947.97;4651644;30;20798;-80
2022/02/04 04:36:33;;;;;;;;;;;;;;;5.17;100.00;97950.84;4638030;30;19946;-80
2022/02/04 04:41:51;;;;;;;;;;;;;;;5.03;100.00;97944.69;4651830;30;19932;-80
2022/02/04 05:29:00;;;;;;;;;;;;;;;4.55;100.00;97957.88;4648942;30;19931;-80
2022/02/04 05:31:27;;;;;;;;;;;;;;;4.13;100.00;97950.75;4668325;30;19932;-80
2022/02/04 05:33:54;;;;;;;;;;;;;;;4.39;100.00;97963.16;4668175;30;19931;-80
2022/02/04 05:36:21;;;;;;;;;;;;;;;4.08;100.00;97955.91;4652857;30;19967;-80
2022/02/04 05:38:51;;;;;;;;;;;;;;;4.25;100.00;97964.09;4666836;30;20289;-80
2022/02/04 05:41:24;;;;;;;;;;;;;;;4.41;100.00;97958.78;4623625;30;19931;-80
2022/02/04 05:43:55;;;;;;;;;;;;;;;4.64;100.00;97958.16;4666642;30;19935;-80
2022/02/04 05:46:28;;;;;;;;;;;;;;;4.64;100.00;97961.75;4666297;30;20289;-81
2022/02/04 05:48:57;;;;;;;;;;;;;;;4.59;100.00;97953.88;4666415;30;19952;-80
2022/02/04 05:51:33;;;;;;;;;;;;;;;4.76;100.00;97955.69;4639720;30;20052;-80
2022/02/04 05:54:20;;;;;;;;;;;;;;;4.29;100.00;97972.31;4640576;30;19932;-80
2022/02/04 05:59:25;;;;;;;;;;;;;;;4.33;100.00;97968.34;4654420;30;19939;-80
2022/02/04 06:02:17;;;;;;;;;;;;;;;4.45;100.00;97978.13;4669461;30;19971;-80
2022/02/04 06:05:01;;;;;;;;;;;;;;;4.49;100.00;97973.34;4654347;30;20358;-80
2022/02/04 06:10:22;;;;;;;;;;;;;;;4.56;100.00;97960.22;4654326;30;19932;-80
2022/02/04 06:23:33;;;;;;;;;;;;;;;4.15;100.00;97970.47;4669205;30;20026;-80
2022/02/04 06:26:03;;;;;;;;;;;;;;;4.15;100.00;97976.00;4654608;30;20418;-80
2022/02/04 06:28:30;;;;;;;;;;;;;;;4.25;100.00;97977.91;4639621;30;20034;-80
2022/02/04 06:30:57;;;;;;;;;;;;;;;4.53;100.00;97983.19;4626053;30;20006;-80
2022/02/04 06:33:26;;;;;;;;;;;;;;;4.68;100.00;97981.06;4653653;30;20060;-80
2022/02/04 06:35:53;;;;;;;;;;;;;;;4.56;100.00;97979.59;4654234;30;20342;-80
2022/02/04 06:38:21;;;;;;;;;;;;;;;4.56;100.00;97971.28;4639766;30;19932;-80
2022/02/04 06:40:48;;;;;;;;;;;;;;;4.45;100.00;97969.84;4653902;30;19932;-80
2022/02/04 06:43:15;;;;;;;;;;;;;;;4.45;100.00;97981.69;4669047;30;20037;-80
2022/02/04 06:45:42;;;;;;;;;;;;;;;4.25;100.00;97983.44;4653955;30;19949;-80
2022/02/04 06:48:09;;;;;;;;;;;;;;;4.29;100.00;97991.69;4639896;30;19990;-80
2022/02/04 06:50:36;;;;;;;;;;;;;;;4.20;100.00;97992.16;4639623;30;19940;-80
2022/02/04 06:53:05;;;;;;;;;;;;;;;4.43;100.00;97986.84;4639986;30;19942;-80
2022/02/04 06:55:32;;;;;;;;;;;;;;;4.56;100.00;97981.59;4639465;30;19939;-80
2022/02/04 06:58:02;;;;;;;;;;;;;;;4.50;100.00;97989.53;4653146;30;19931;-80
2022/02/04 07:00:29;;;;;;;;;;;;;;;4.24;100.00;97984.63;4639329;30;19932;-80
2022/02/04 07:02:57;;;;;;;;;;;;;;;4.20;100.00;97994.94;4668741;30;19936;-80
2022/02/04 07:05:25;;;;;;;;;;;;;;;4.40;100.00;97995.94;4639104;30;19943;-80
2022/02/04 07:08:08;;;;;;;;;;;;;;;4.40;100.00;98004.25;4668682;30;19938;-80
2022/02/04 07:10:53;;;;;;;;;;;;;;;4.21;100.00;97990.97;4639396;30;19931;-80
2022/02/04 07:13:30;;;;;;;;;;;;;;;4.17;100.00;98000.47;4610916;30;19932;-80
2022/02/04 07:21:31;;;;;;;;;;;;;;;4.06;100.00;98013.59;4683692;30;19979;-79
2022/02/04 07:23:58;;;;;;;;;;;;;;;4.44;100.00;98020.81;4669798;30;19931;-80
2022/02/04 07:26:25;;;;;;;;;;;;;;;4.60;100.00;98010.00;4641349;30;20389;-79
2022/02/04 07:28:54;;;;;;;;;;;;;;;4.25;100.00;98013.84;4660008;30;19935;-79
2022/02/04 07:31:21;;;;;;;;;;;;;;;4.51;100.00;98029.84;4638593;30;19982;-79
2022/02/04 07:33:53;;;;;;;;;;;;;;;4.48;100.00;98027.91;4638603;30;20027;-79
2022/02/04 07:41:45;;;;;;;;;;;;;;;4.33;100.00;98025.66;4684522;30;19987;-76
2022/02/04 07:44:13;;;;;;;;;;;;;;;4.48;100.00;98030.66;4684540;30;20301;-76
2022/02/04 07:46:40;;;;;;;;;;;;;;;4.82;100.00;98028.75;4655121;30;19932;-77
2022/02/04 07:49:08;;;;;;;;;;;;;;;4.55;100.00;98025.06;4684436;30;19967;-77
2022/02/04 07:51:35;;;;;;;;;;;;;;;4.56;100.00;98032.16;4684902;30;20007;-76
2022/02/04 07:54:02;;;;;;;;;;;;;;;4.55;100.00;98047.19;4684448;30;19931;-77
2022/02/04 07:56:29;;;;;;;;;;;;;;;4.75;100.00;98059.28;4683980;30;19959;-77
2022/02/04 07:58:58;;;;;;;;;;;;;;;4.90;100.00;98063.47;4684260;30;19938;-76
2022/02/04 08:01:28;;;;;;;;;;;;;;;4.94;100.00;98053.16;4684394;30;19936;-77
2022/02/04 08:04:07;;;;;;;;;;;;;;;4.83;100.00;98063.53;4668994;30;19943;-77
2022/02/04 08:06:38;;;;;;;;;;;;;;;5.20;100.00;98069.09;4668694;30;19932;-76
2022/02/04 08:17:27;;;;;;;;;;;;;;;5.25;100.00;98063.13;4663418;30;20365;-77
2022/02/04 08:25:34;;;;;;;;;;;;;;;5.15;100.00;98074.31;4676338;30;19936;-77
2022/02/04 08:54:16;;;;;;;;;;;;;;;4.30;100.00;98062.41;4656756;30;20026;-78
2022/02/04 08:56:56;;;;;;;;;;;;;;;4.23;100.00;98076.25;4656411;30;20022;-81
2022/02/04 08:59:37;;;;;;;;;;;;;;;4.01;100.00;98078.41;4679769;30;19938;-77
2022/02/04 09:02:11;;;;;;;;;;;;;;;4.29;100.00;98080.16;4677452;30;19936;-77
2022/02/04 09:04:45;;;;;;;;;;;;;;;4.07;100.00;98065.72;4665095;30;20412;-78
2022/02/04 09:07:15;;;;;;;;;;;;;;;4.46;100.00;98065.44;4660105;30;19932;-78
2022/02/04 09:09:59;;;;;;;;;;;;;;;4.12;100.00;98068.03;4657701;30;19936;-78
2022/02/04 09:20:33;;;;;;;;;;;;;;;4.02;100.00;98068.91;4663689;30;20042;-78
2022/02/04 09:23:24;;;;;;;;;;;;;;;4.19;100.00;98081.84;4655331;30;19987;-78
2022/02/04 09:26:14;;;;;;;;;;;;;;;4.12;100.00;98084.63;4656936;30;19949;-85
2022/02/04 09:28:46;;;;;;;;;;;;;;;4.46;100.00;98104.16;4651588;30;20278;-90
2022/02/04 09:31:15;;;;;;;;;;;;;;;4.30;100.00;98101.13;4670139;30;19955;-90
2022/02/04 09:33:42;;;;;;;;;;;;;;;4.28;100.00;98095.19;4669482;30;19970;-80
2022/02/04 09:36:09;;;;;;;;;;;;;;;4.21;100.00;98093.25;4673048;30;19931;-80
2022/02/04 09:38:36;;;;;;;;;;;;;;;4.44;100.00;98096.25;4651810;30;19932;-80
2022/02/04 09:41:05;;;;;;;;;;;;;;;4.51;100.00;98112.03;4637670;30;19932;-86
2022/02/04 09:43:34;;;;;;;;;;;;;;;4.33;100.00;98084.47;4645316;30;19938;-84
2022/02/04 09:46:01;;;;;;;;;;;;;;;4.25;100.00;98096.81;4679835;30;19931;-81
2022/02/04 09:48:28;;;;;;;;;;;;;;;4.31;100.00;98091.63;4665239;30;20433;-79
2022/02/04 09:50:58;;;;;;;;;;;;;;;4.52;100.00;98091.47;4651860;30;19935;-78
2022/02/04 10:10:25;;;;;;;;;;;;;;;4.59;100.00;98111.56;4680138;30;19931;-82
2022/02/04 10:15:46;;;;;;;;;;;;;;;5.07;100.00;98117.09;4681334;30;19938;-80
2022/02/04 10:18:30;;;;;;;;;;;;;;;5.20;100.00;98118.94;4652888;30;20073;-81
2022/02/04 10:21:02;;;;;;;;;;;;;;;5.15;100.00;98113.09;4652333;30;19959;-81
2022/02/04 10:23:48;;;;;;;;;;;;;;;5.18;100.00;98126.88;4665595;30;19932;-78
2022/02/04 10:26:16;;;;;;;;;;;;;;;5.20;100.00;98110.66;4664662;30;19935;-79
2022/02/04 10:28:43;;;;;;;;;;;;;;;5.05;100.00;98120.28;4649042;30;19952;-79
2022/02/04 10:31:15;;;;;;;;;;;;;;;5.61;100.00;98130.00;4648978;30;19932;-77
2022/02/04 10:34:00;;;;;;;;;;;;;;;5.68;100.00;98123.59;4664388;30;20517;-79
2022/02/04 10:36:35;;;;;;;;;;;;;;;5.73;100.00;98142.53;4634663;30;19932;-78
2022/02/04 10:39:29;;;;;;;;;;;;;;;5.14;100.00;98145.50;4668891;30;19937;-79
2022/02/04 10:42:35;;;;;;;;;;;;;;;4.77;100.00;98152.97;4661195;30;19932;-78
2022/02/04 11:03:52;;;;;;;;;;;;;;;5.00;100.00;98184.38;4680776;30;19931;-77
2022/02/04 11:09:19;;;;;;;;;;;;;;;5.24;100.00;98174.31;4680873;30;20301;-77
2022/02/04 11:33:52;;;;;;;;;;;;;;;4.59;100.00;98177.97;4665475;30;19963;-76
2022/02/04 11:36:50;;;;;;;;;;;;;;;4.76;100.00;98151.34;4681432;30;20325;-76
2022/02/04 11:48:26;;;;;;;;;;;;;;;5.96;100.00;98168.44;4664181;30;20326;-85
2022/02/04 11:51:14;;;;;;;;;;;;;;;5.77;100.00;98165.47;4650001;30;20018;-82
2022/02/04 11:54:29;;;;;;;;;;;;;;;5.31;100.00;98161.19;4622399;30;20302;-84
2022/02/04 11:57:03;;;;;;;;;;;;;;;5.48;100.00;98189.91;4665019;30;19940;-85
2022/02/04 11:59:35;;;;;;;;;;;;;;;5.19;100.00;98185.81;4652369;30;19938;-79
2022/02/04 12:02:26;;;;;;;;;;;;;;;4.74;100.00;98187.75;4680891;30;19935;-87
2022/02/04 12:05:08;;;;;;;;;;;;;;;4.49;100.00;98156.69;4650942;30;19931;-80
2022/02/04 12:07:36;;;;;;;;;;;;;;;4.67;100.00;98187.81;4680508;30;20393;-80
2022/02/04 12:10:16;;;;;;;;;;;;;;;4.94;100.00;98186.03;4665761;30;20293;-80
2022/02/04 12:12:52;;;;;;;;;;;;;;;5.15;100.00;98185.06;4665902;30;19938;-79
2022/02/04 12:15:25;;;;;;;;;;;;;;;5.20;100.00;98193.72;4681139;30;19986;-80
2022/02/04 12:17:54;;;;;;;;;;;;;;;5.15;100.00;98185.84;4665241;30;19931;-79
2022/02/04 12:20:39;;;;;;;;;;;;;;;5.33;100.00;98202.31;4651166;30;19936;-79
2022/02/04 12:23:06;;;;;;;;;;;;;;;5.44;100.00;98195.47;4680906;30;19935;-80
2022/02/04 12:25:52;;;;;;;;;;;;;;;5.47;100.00;98202.97;4680513;30;19931;-79
2022/02/04 12:28:35;;;;;;;;;;;;;;;5.20;100.00;98188.19;4680844;30;19938;-79
2022/02/04 12:31:08;;;;;;;;;;;;;;;5.03;100.00;98183.56;4680924;30;20029;-79
2022/02/04 12:33:42;;;;;;;;;;;;;;;4.99;100.00;98176.50;4680960;30;19937;-79
2022/02/04 12:36:33;;;;;;;;;;;;;;;5.38;100.00;98210.97;4651589;30;19938;-77
2022/02/04 12:39:05;;;;;;;;;;;;;;;5.30;100.00;98208.69;4672308;30;19962;-79
2022/02/04 12:41:33;;;;;;;;;;;;;;;4.99;100.00;98213.28;4665261;30;20014;-78
2022/02/04 12:44:01;;;;;;;;;;;;;;;5.47;100.00;98214.06;4664265;30;19959;-79
2022/02/04 12:46:29;;;;;;;;;;;;;;;5.69;100.00;98209.09;4680010;30;19936;-78
2022/02/04 12:48:59;;;;;;;;;;;;;;;5.32;100.00;98204.28;4680569;30;20468;-79
2022/02/04 12:54:27;;;;;;;;;;;;;;;5.49;100.00;98230.25;4677201;30;20075;-81
2022/02/04 13:00:19;;;;;;;;;;;;;;;5.18;100.00;98231.34;4679900;30;20037;-78
2022/02/04 13:10:58;;;;;;;;;;;;;;;5.11;100.00;98246.00;4674469;30;19935;-78
2022/02/04 13:13:42;;;;;;;;;;;;;;;5.06;100.00;98251.19;4668298;30;19932;-80
2022/02/04 13:16:13;;;;;;;;;;;;;;;5.17;100.00;98252.69;4657239;30;19947;-79
2022/02/04 13:18:40;;;;;;;;;;;;;;;5.02;100.00;98254.00;4679365;30;19931;-79
2022/02/04 13:21:08;;;;;;;;;;;;;;;5.26;100.00;98247.47;4680703;30;20490;-79
2022/02/04 13:23:35;;;;;;;;;;;;;;;5.23;100.00;98240.00;4664633;30;20340;-79
2022/02/04 13:26:04;;;;;;;;;;;;;;;5.30;100.00;98251.00;4665002;30;19938;-79
2022/02/04 13:28:33;;;;;;;;;;;;;;;5.55;100.00;98248.03;4665451;30;19932;-79
2022/02/04 13:31:03;;;;;;;;;;;;;;;5.84;100.00;98246.59;4680194;30;20039;-80
2022/02/04 13:33:40;;;;;;;;;;;;;;;6.08;100.00;98241.97;4679929;30;19932;-80
2022/02/04 13:36:31;;;;;;;;;;;;;;;6.14;100.00;98234.75;4664513;30;20030;-79
2022/02/04 13:39:17;;;;;;;;;;;;;;;5.84;100.00;98256.88;4664114;30;19953;-79
2022/02/04 13:42:18;;;;;;;;;;;;;;;5.57;100.00;98237.31;4663690;30;20369;-79
2022/02/04 13:45:10;;;;;;;;;;;;;;;5.83;100.00;98252.53;4664880;30;19954;-79
2022/02/04 13:47:51;;;;;;;;;;;;;;;6.10;100.00;98237.59;4662559;30;19935;-79
2022/02/04 13:50:29;;;;;;;;;;;;;;;5.84;100.00;98238.28;4650242;30;19939;-79
2022/02/04 13:53:03;;;;;;;;;;;;;;;5.97;100.00;98233.75;4641343;30;19943;-79
2022/02/04 14:03:48;;;;;;;;;;;;;;;5.98;100.00;98246.44;4677711;30;19938;-79
2022/02/04 14:06:18;;;;;;;;;;;;;;;5.58;100.00;98247.19;4667966;30;19954;-79
2022/02/04 14:08:51;;;;;;;;;;;;;;;5.74;100.00;98260.53;4667761;30;20381;-80
2022/02/04 14:11:30;;;;;;;;;;;;;;;5.51;100.00;98278.53;4654389;30;19931;-79
2022/02/04 14:14:05;;;;;;;;;;;;;;;5.15;100.00;98257.84;4653726;30;20393;-80
2022/02/04 14:16:36;;;;;;;;;;;;;;;4.97;100.00;98257.19;4655131;30;19938;-83
2022/02/04 14:19:06;;;;;;;;;;;;;;;5.13;100.00;98267.75;4683708;30;19942;-80
2022/02/04 14:21:34;;;;;;;;;;;;;;;5.20;100.00;98282.34;4668139;30;19931;-82
2022/02/04 14:24:10;;;;;;;;;;;;;;;5.13;100.00;98287.94;4668441;30;19932;-81
2022/02/04 14:26:46;;;;;;;;;;;;;;;5.10;100.00;98268.56;4650688;30;19932;-82
2022/02/04 14:32:07;;;;;;;;;;;;;;;5.39;100.00;98281.78;4658496;30;19942;-83
2022/02/04 15:02:11;;;;;;;;;;;;;;;5.66;100.00;98309.69;4627677;30;20572;-78
2022/02/04 15:04:48;;;;;;;;;;;;;;;5.62;100.00;98319.22;4628398;31;19958;-79
2022/02/04 15:07:18;;;;;;;;;;;;;;;5.53;100.00;98312.16;4615867;31;20027;-79
2022/02/04 15:09:54;;;;;;;;;;;;;;;5.73;100.00;98314.38;4615101;31;19940;-82
2022/02/04 15:12:23;;;;;;;;;;;;;;;5.99;100.00;98305.44;4627916;31;19963;-77
2022/02/04 15:14:50;;;;;;;;;;;;;;;6.08;100.00;98308.53;4641250;30;19943;-80
2022/02/04 15:17:18;;;;;;;;;;;;;;;6.09;100.00;98301.78;4617679;30;20360;-78
2022/02/04 15:19:45;;;;;;;;;;;;;;;6.13;100.00;98305.31;4645162;30;19932;-78
2022/02/04 15:22:14;;;;;;;;;;;;;;;5.73;100.00;98319.91;4644398;30;19932;-78
2022/02/04 15:24:41;;;;;;;;;;;;;;;5.81;100.00;98321.44;4645014;30;19932;-76
2022/02/04 15:27:10;;;;;;;;;;;;;;;5.62;100.00;98320.00;4644869;30;19932;-76
2022/02/04 15:29:43;;;;;;;;;;;;;;;5.81;100.00;98300.06;4644590;30;19971;-76
2022/02/04 15:32:10;;;;;;;;;;;;;;;5.87;100.00;98314.28;4644506;30;19936;-76
2022/02/04 15:34:37;;;;;;;;;;;;;;;5.96;100.00;98328.44;4631083;30;19932;-76
2022/02/04 15:37:04;;;;;;;;;;;;;;;6.11;100.00;98321.56;4628039;30;19945;-75
2022/02/04 15:39:32;;;;;;;;;;;;;;;5.90;100.00;98324.53;4680695;30;19939;-75
2022/02/04 15:42:07;;;;;;;;;;;;;;;6.04;100.00;98327.19;4681147;30;19931;-76
2022/02/04 15:44:38;;;;;;;;;;;;;;;6.01;100.00;98337.13;4667162;30;19931;-77
2022/02/04 15:52:51;;;;;;;;;;;;;;;5.68;100.00;98353.63;4645193;30;20021;-93
2022/02/04 16:00:53;;;;;;;;;;;;;;;5.43;100.00;98373.19;4643536;30;19939;-76
2022/02/04 16:05:56;;;;;;;;;;;;;;;5.66;100.00;98364.31;4645822;30;19939;-76
2022/02/04 16:08:24;;;;;;;;;;;;;;;5.69;100.00;98366.28;4645024;30;19939;-76
2022/02/04 16:11:17;;;;;;;;;;;;;;;5.52;100.00;98366.00;4644824;30;19932;-76
2022/02/04 16:13:45;;;;;;;;;;;;;;;5.69;100.00;98364.31;4644971;30;19940;-76
2022/02/04 16:21:32;;;;;;;;;;;;;;;5.60;100.00;98358.44;4647149;30;19983;-76
2022/02/04 16:24:44;;;;;;;;;;;;;;;5.54;100.00;98366.38;4646772;30;19932;-76
2022/02/04 16:27:08;;;;;;;;;;;;;;;5.59;100.00;98382.56;4645571;30;19932;-75
2022/02/04 16:29:40;;;;;;;;;;;;;;;5.42;100.00;98389.03;4655037;30;19932;-76
2022/02/04 16:32:07;;;;;;;;;;;;;;;5.44;100.00;98392.19;4664884;30;20003;-76
2022/02/04 16:34:34;;;;;;;;;;;;;;;5.24;100.00;98398.66;4665771;30;19932;-76
2022/02/04 16:37:04;;;;;;;;;;;;;;;5.14;100.00;98394.75;4665695;30;19963;-75
2022/02/04 16:39:33;;;;;;;;;;;;;;;5.39;100.00;98406.44;4650415;30;19990;-76
2022/02/04 16:42:10;;;;;;;;;;;;;;;5.21;100.00;98416.84;4665905;30;20041;-76
2022/02/04 16:44:38;;;;;;;;;;;;;;;5.35;100.00;98425.09;4665869;30;19936;-76
2022/02/04 16:47:05;;;;;;;;;;;;;;;5.42;100.00;98427.03;4664677;30;19969;-76
2022/02/04 16:49:33;;;;;;;;;;;;;;;5.30;100.00;98433.81;4650602;30;19935;-76
2022/02/04 16:52:00;;;;;;;;;;;;;;;5.30;100.00;98453.19;4665891;30;19967;-76
2022/02/04 16:54:28;;;;;;;;;;;;;;;5.59;100.00;98449.09;4650280;30;20345;-76
2022/02/04 16:56:55;;;;;;;;;;;;;;;5.52;100.00;98451.91;4665709;30;20083;-76
2022/02/04 16:59:23;;;;;;;;;;;;;;;5.51;100.00;98464.16;4665766;30;19932;-76
2022/02/04 17:01:50;;;;;;;;;;;;;;;5.49;100.00;98449.94;4650346;30;20030;-76
2022/02/04 17:04:18;;;;;;;;;;;;;;;5.40;100.00;98452.38;4650699;30;20405;-76
2022/02/04 17:06:53;;;;;;;;;;;;;;;5.64;100.00;98458.97;4636105;30;20003;-76
2022/02/04 17:09:22;;;;;;;;;;;;;;;5.38;100.00;98465.84;4650345;30;19975;-76
2022/02/04 17:11:59;;;;;;;;;;;;;;;5.69;100.00;98474.38;4665663;30;19932;-76
2022/02/04 17:14:27;;;;;;;;;;;;;;;5.45;100.00;98476.09;4636288;30;19932;-76
2022/02/04 17:16:55;;;;;;;;;;;;;;;5.71;100.00;98489.41;4665602;30;20412;-76
2022/02/04 17:19:25;;;;;;;;;;;;;;;5.43;100.00;98506.19;4665538;30;20036;-76
2022/02/04 17:21:54;;;;;;;;;;;;;;;5.40;100.00;98498.69;4650071;30;20341;-76
2022/02/04 17:24:22;;;;;;;;;;;;;;;5.36;100.00;98503.47;4636179;30;20090;-76
2022/02/04 17:26:49;;;;;;;;;;;;;;;5.56;100.00;98502.56;4650135;30;19971;-76
2022/02/04 17:29:16;;;;;;;;;;;;;;;5.59;100.00;98500.94;4665493;30;20593;-76
2022/02/04 17:31:44;;;;;;;;;;;;;;;5.39;100.00;98500.66;4650365;30;19938;-75
2022/02/04 17:34:12;;;;;;;;;;;;;;;5.56;100.00;98494.25;4664333;30;20039;-76
2022/02/04 17:36:39;;;;;;;;;;;;;;;5.66;100.00;98503.69;4665062;30;19938;-76
2022/02/04 17:39:15;;;;;;;;;;;;;;;5.53;100.00;98497.81;4650109;30;19939;-76
2022/02/04 17:41:43;;;;;;;;;;;;;;;5.42;100.00;98505.38;4650170;30;19931;-76
2022/02/04 17:44:12;;;;;;;;;;;;;;;5.31;100.00;98496.34;4650078;30;19967;-76
2022/02/04 17:46:40;;;;;;;;;;;;;;;5.65;100.00;98506.88;4666426;30;19938;-76
2022/02/04 17:49:30;;;;;;;;;;;;;;;5.59;100.00;98531.44;4639299;30;19936;-76
2022/02/04 17:52:19;;;;;;;;;;;;;;;5.21;100.00;98549.78;4668021;30;19932;-76
2022/02/04 17:54:54;;;;;;;;;;;;;;;4.81;100.00;98555.81;4653643;30;20227;-76
2022/02/04 18:03:12;;;;;;;;;;;;;;;3.76;100.00;98590.88;4653134;30;19975;-75
2022/02/04 18:05:55;;;;;;;;;;;;;;;3.65;100.00;98579.75;4668133;30;19932;-76
2022/02/04 18:08:23;;;;;;;;;;;;;;;3.43;100.00;98584.44;4653171;30;19931;-75
2022/02/04 18:10:50;;;;;;;;;;;;;;;3.44;100.00;98571.41;4668361;30;19938;-75
2022/02/04 18:13:18;;;;;;;;;;;;;;;3.64;100.00;98589.25;4668118;30;19935;-76
2022/02/04 18:15:46;;;;;;;;;;;;;;;3.64;100.00;98590.03;4668293;30;19954;-75
2022/02/04 18:18:14;;;;;;;;;;;;;;;3.57;100.00;98578.94;4652954;30;19931;-75
2022/02/04 18:20:42;;;;;;;;;;;;;;;3.57;100.00;98586.47;4667929;30;20382;-75
2022/02/04 18:23:09;;;;;;;;;;;;;;;3.59;100.00;98573.84;4666978;30;20047;-75
2022/02/04 18:25:36;;;;;;;;;;;;;;;3.85;100.00;98583.78;4666899;30;19971;-75
2022/02/04 18:28:03;;;;;;;;;;;;;;;3.73;100.00;98600.72;4652749;30;19979;-75
2022/02/04 18:30:34;;;;;;;;;;;;;;;3.78;100.00;98586.53;4666762;30;20022;-75
2022/02/04 18:33:02;;;;;;;;;;;;;;;3.72;100.00;98608.25;4652778;30;19932;-75
2022/02/04 18:35:30;;;;;;;;;;;;;;;3.93;100.00;98613.03;4652256;30;20405;-75
2022/02/04 18:38:09;;;;;;;;;;;;;;;4.10;100.00;98615.06;4666745;30;20021;-76
2022/02/04 18:43:58;;;;;;;;;;;;;;;4.26;100.00;98621.00;4652474;30;19932;-76
2022/02/04 18:46:03;;;;;;;;;;;;;;;4.02;100.00;98638.34;4660247;30;19971;-76
2022/02/04 18:48:41;;;;;;;;;;;;;;;4.33;100.00;98640.38;4683559;30;20401;-75
2022/02/04 18:54:10;;;;;;;;;;;;;;;4.25;100.00;98643.53;4669212;30;19931;-75
2022/02/04 18:59:26;;;;;;;;;;;;;;;4.18;100.00;98651.81;4684706;30;19935;-75
2022/02/04 19:01:53;;;;;;;;;;;;;;;4.39;100.00;98665.69;4669400;30;19986;-76
2022/02/04 19:04:29;;;;;;;;;;;;;;;4.39;100.00;98655.41;4669109;30;20023;-76
2022/02/04 19:07:02;;;;;;;;;;;;;;;4.25;100.00;98658.16;4684512;30;19982;-76
2022/02/04 19:09:29;;;;;;;;;;;;;;;4.50;100.00;98664.53;4684676;30;19935;-76
2022/02/04 19:12:03;;;;;;;;;;;;;;;4.49;100.00;98662.94;4684437;30;19998;-76
2022/02/04 19:17:13;;;;;;;;;;;;;;;4.48;100.00;98661.38;4684357;30;20405;-76
2022/02/04 19:24:42;;;;;;;;;;;;;;;4.33;100.00;98658.97;4668853;30;20401;-76
2022/02/04 19:27:11;;;;;;;;;;;;;;;4.46;100.00;98669.25;4655173;30;19938;-76
2022/02/04 19:29:45;;;;;;;;;;;;;;;4.70;100.00;98660.19;4684237;30;19935;-76
2022/02/04 19:32:14;;;;;;;;;;;;;;;4.49;100.00;98665.72;4683853;30;19932;-76
2022/02/04 19:34:41;;;;;;;;;;;;;;;4.59;100.00;98673.22;4684155;30;20427;-76
2022/02/04 19:37:08;;;;;;;;;;;;;;;4.76;100.00;98682.72;4683997;30;20328;-76
2022/02/04 19:39:36;;;;;;;;;;;;;;;4.50;100.00;98691.41;4684118;30;20367;-76